createdAt,value
2019-03-26T00:00:56.140Z,2.60
2019-03-26T00:03:25.453Z,2.60
2019-03-26T00:05:55.090Z,2.60
2019-03-26T00:08:25.087Z,2.60
2019-03-26T00:10:54.481Z,2.60
2019-03-26T00:13:24.409Z,2.60
2019-03-26T00:15:53.809Z,2.60
2019-03-26T00:18:23.117Z,2.60
2019-03-26T00:20:52.436Z,2.60
2019-03-26T00:23:22.411Z,2.60
2019-03-26T00:25:51.962Z,2.60
2019-03-26T00:28:21.545Z,2.70
2019-03-26T00:30:51.273Z,2.60
2019-03-26T00:33:20.965Z,2.60
2019-03-26T00:35:50.357Z,2.60
2019-03-26T00:38:20.393Z,2.70
2019-03-26T00:40:49.756Z,2.60
2019-03-26T00:43:19.397Z,2.60
2019-03-26T00:45:48.753Z,2.60
2019-03-26T00:48:18.068Z,2.60
2019-03-26T00:50:47.717Z,2.60
2019-03-26T00:53:17.320Z,2.60
2019-03-26T00:55:46.711Z,2.50
2019-03-26T00:58:16.121Z,2.60
2019-03-26T01:00:46.189Z,2.60
2019-03-26T01:03:15.985Z,2.60
2019-03-26T01:05:45.858Z,2.60
2019-03-26T01:08:15.242Z,2.60
2019-03-26T01:10:44.781Z,2.70
2019-03-26T01:13:14.474Z,2.60
2019-03-26T01:15:44.320Z,2.70
2019-03-26T01:18:13.925Z,2.60
2019-03-26T01:20:43.355Z,2.70
2019-03-26T01:23:12.925Z,2.60
2019-03-26T01:25:42.539Z,2.60
2019-03-26T01:28:12.830Z,2.60
2019-03-26T01:30:42.501Z,2.70
2019-03-26T01:33:12.474Z,2.60
2019-03-26T01:35:41.884Z,2.60
2019-03-26T01:38:11.489Z,2.60
2019-03-26T01:40:41.396Z,2.60
2019-03-26T01:43:11.029Z,2.70
2019-03-26T01:45:40.711Z,2.70
2019-03-26T01:48:10.033Z,2.70
2019-03-26T01:50:39.943Z,2.60
2019-03-26T01:53:09.658Z,2.70
2019-03-26T01:55:39.549Z,2.70
2019-03-26T01:58:08.990Z,2.70
2019-03-26T02:00:39.066Z,2.70
2019-03-26T02:03:09.100Z,2.60
2019-03-26T02:05:38.533Z,2.70
2019-03-26T02:08:08.345Z,2.70
2019-03-26T02:10:38.323Z,2.60
2019-03-26T02:13:07.977Z,2.60
2019-03-26T02:15:38.005Z,2.60
2019-03-26T02:18:07.696Z,2.60
2019-03-26T02:20:37.024Z,2.60
2019-03-26T02:23:07.084Z,2.60
2019-03-26T02:25:36.501Z,2.50
2019-03-26T02:28:05.977Z,2.50
2019-03-26T02:30:36.529Z,2.40
2019-03-26T02:33:06.094Z,2.40
2019-03-26T02:35:35.634Z,2.40
2019-03-26T02:38:05.384Z,2.40
2019-03-26T02:40:34.671Z,2.50
2019-03-26T02:43:04.163Z,2.60
2019-03-26T02:45:33.462Z,2.60
2019-03-26T02:48:02.784Z,2.60
2019-03-26T02:50:32.476Z,2.60
2019-03-26T02:53:01.969Z,2.60
2019-03-26T02:55:31.679Z,2.60
2019-03-26T02:58:01.029Z,2.60
2019-03-26T03:00:30.776Z,2.60
2019-03-26T03:03:00.749Z,2.50
2019-03-26T03:05:35.842Z,2.50
2019-03-26T03:08:01.770Z,2.50
2019-03-26T03:10:31.782Z,2.50
2019-03-26T03:13:01.690Z,2.50
2019-03-26T03:15:31.010Z,2.50
2019-03-26T03:18:00.501Z,2.40
2019-03-26T03:20:30.207Z,2.50
2019-03-26T03:23:00.030Z,2.50
2019-03-26T03:25:29.884Z,2.50
2019-03-26T03:27:59.466Z,2.50
2019-03-26T03:30:29.079Z,2.50
2019-03-26T03:32:58.805Z,2.40
2019-03-26T03:35:28.784Z,2.40
2019-03-26T03:37:58.106Z,2.40
2019-03-26T03:40:27.471Z,2.40
2019-03-26T03:42:57.095Z,2.40
2019-03-26T03:45:30.655Z,2.40
2019-03-26T03:48:00.981Z,2.30
2019-03-26T03:50:32.256Z,2.40
2019-03-26T03:53:02.468Z,2.30
2019-03-26T03:55:33.207Z,2.30
2019-03-26T03:58:03.593Z,2.30
2019-03-26T04:00:40.489Z,2.40
2019-03-26T04:03:11.109Z,2.40
2019-03-26T04:05:40.770Z,2.40
2019-03-26T04:08:10.177Z,2.40
2019-03-26T04:10:39.887Z,2.40
2019-03-26T04:13:09.393Z,2.30
2019-03-26T04:15:38.868Z,2.30
2019-03-26T04:18:08.631Z,2.30
2019-03-26T04:20:38.431Z,2.30
2019-03-26T04:23:08.334Z,2.30
2019-03-26T04:25:37.850Z,2.30
2019-03-26T04:28:07.574Z,2.30
2019-03-26T04:30:37.767Z,2.20
2019-03-26T04:33:07.477Z,2.20
2019-03-26T04:35:37.024Z,2.20
2019-03-26T04:38:06.654Z,2.20
2019-03-26T04:40:36.814Z,2.20
2019-03-26T04:43:06.473Z,2.20
2019-03-26T04:45:35.808Z,2.10
2019-03-26T04:48:05.637Z,2.20
2019-03-26T04:50:35.038Z,2.20
2019-03-26T04:53:04.589Z,2.20
2019-03-26T04:55:34.183Z,2.20
2019-03-26T04:58:03.781Z,2.30
2019-03-26T05:00:33.705Z,2.30
2019-03-26T05:03:03.287Z,2.30
2019-03-26T05:05:32.890Z,2.30
2019-03-26T05:08:02.513Z,2.20
2019-03-26T05:10:31.895Z,2.20
2019-03-26T05:13:01.190Z,2.20
2019-03-26T05:15:30.866Z,2.20
2019-03-26T05:18:00.441Z,2.30
2019-03-26T05:20:30.064Z,2.30
2019-03-26T05:22:59.764Z,2.30
2019-03-26T05:25:29.097Z,2.30
2019-03-26T05:27:59.022Z,2.20
2019-03-26T05:30:29.050Z,2.20
2019-03-26T05:32:58.362Z,2.20
2019-03-26T05:35:27.674Z,2.30
2019-03-26T05:37:57.281Z,2.30
2019-03-26T05:40:26.699Z,2.30
2019-03-26T05:42:56.731Z,2.30
2019-03-26T05:45:26.043Z,2.30
2019-03-26T05:47:56.106Z,2.30
2019-03-26T05:50:26.362Z,2.40
2019-03-26T05:52:57.012Z,2.50
2019-03-26T05:55:26.320Z,2.40
2019-03-26T05:57:56.546Z,2.30
2019-03-26T06:00:27.098Z,2.40
2019-03-26T06:02:56.418Z,2.50
2019-03-26T06:05:25.961Z,2.60
2019-03-26T06:07:55.273Z,2.60
2019-03-26T06:10:25.129Z,2.60
2019-03-26T06:12:54.526Z,2.60
2019-03-26T06:15:24.277Z,2.70
2019-03-26T06:17:53.881Z,2.70
2019-03-26T06:20:23.432Z,2.70
2019-03-26T06:22:52.744Z,2.70
2019-03-26T06:25:22.538Z,2.80
2019-03-26T06:27:51.909Z,2.90
2019-03-26T06:30:21.214Z,2.90
2019-03-26T06:32:50.521Z,3.00
2019-03-26T06:35:20.210Z,3.00
2019-03-26T06:37:49.524Z,3.10
2019-03-26T06:40:19.147Z,3.10
2019-03-26T06:42:49.473Z,3.10
2019-03-26T06:45:19.890Z,3.10
2019-03-26T06:47:50.069Z,3.40
2019-03-26T06:50:19.846Z,3.30
2019-03-26T06:52:49.535Z,3.50
2019-03-26T06:55:18.869Z,3.70
2019-03-26T06:57:48.386Z,3.90
2019-03-26T07:00:22.888Z,3.90
2019-03-26T07:02:52.635Z,4.00
2019-03-26T07:05:21.954Z,4.10
2019-03-26T07:07:51.554Z,4.00
2019-03-26T07:10:25.699Z,4.10
2019-03-26T07:12:55.237Z,4.20
2019-03-26T07:15:25.021Z,4.10
2019-03-26T07:17:56.596Z,4.10
2019-03-26T07:20:26.362Z,4.20
2019-03-26T07:22:56.097Z,4.20
2019-03-26T07:25:26.094Z,4.20
2019-03-26T07:27:55.485Z,4.20
2019-03-26T07:30:39.386Z,4.30
2019-03-26T07:33:09.270Z,4.30
2019-03-26T07:35:38.749Z,4.60
2019-03-26T07:38:08.424Z,4.60
2019-03-26T07:40:38.215Z,4.60
2019-03-26T07:43:08.299Z,4.40
2019-03-26T07:45:38.108Z,4.50
2019-03-26T07:48:07.828Z,4.50
2019-03-26T07:50:37.710Z,4.20
2019-03-26T07:53:07.357Z,4.20
2019-03-26T07:55:36.705Z,4.50
2019-03-26T07:58:06.677Z,4.80
2019-03-26T08:00:38.025Z,4.80
2019-03-26T08:03:08.142Z,4.90
2019-03-26T08:05:37.749Z,4.90
2019-03-26T08:08:07.204Z,5.00
2019-03-26T08:10:36.589Z,4.90
2019-03-26T08:13:06.787Z,5.00
2019-03-26T08:15:36.186Z,5.00
2019-03-26T08:18:07.424Z,5.30
2019-03-26T08:20:37.268Z,5.40
2019-03-26T08:23:06.637Z,5.60
2019-03-26T08:25:36.840Z,5.60
2019-03-26T08:28:06.570Z,5.60
2019-03-26T08:30:36.286Z,5.70
2019-03-26T08:33:05.981Z,5.40
2019-03-26T08:35:35.677Z,5.60
2019-03-26T08:38:12.453Z,5.70
2019-03-26T08:40:36.547Z,5.90
2019-03-26T08:43:06.570Z,6.00
2019-03-26T08:45:36.291Z,6.20
2019-03-26T08:48:06.137Z,6.30
2019-03-26T08:50:35.447Z,6.50
2019-03-26T08:53:04.837Z,6.50
2019-03-26T08:55:34.193Z,6.70
2019-03-26T08:58:03.680Z,6.60
2019-03-26T09:00:32.999Z,6.50
2019-03-26T09:03:02.958Z,6.60
2019-03-26T09:05:33.246Z,6.60
2019-03-26T09:08:02.633Z,6.80
2019-03-26T09:10:32.187Z,7.00
2019-03-26T09:13:02.054Z,7.10
2019-03-26T09:15:31.340Z,7.40
2019-03-26T09:18:00.893Z,7.40
2019-03-26T09:20:30.418Z,6.80
2019-03-26T09:22:59.721Z,6.60
2019-03-26T09:25:29.505Z,7.00
2019-03-26T09:27:59.059Z,7.50
2019-03-26T09:30:28.925Z,7.30
2019-03-26T09:32:59.006Z,7.40
2019-03-26T09:35:28.659Z,7.80
2019-03-26T09:37:58.398Z,7.80
2019-03-26T09:40:27.713Z,7.90
2019-03-26T09:42:57.048Z,7.60
2019-03-26T09:45:26.677Z,7.40
2019-03-26T09:47:55.994Z,7.10
2019-03-26T09:50:35.684Z,6.90
2019-03-26T09:53:05.724Z,7.00
2019-03-26T09:55:35.718Z,6.60
2019-03-26T09:58:05.666Z,6.90
2019-03-26T10:00:35.715Z,6.80
2019-03-26T10:03:06.345Z,6.90
2019-03-26T10:05:35.637Z,7.00
2019-03-26T10:08:05.253Z,7.00
2019-03-26T10:10:35.081Z,7.00
2019-03-26T10:13:04.572Z,7.10
2019-03-26T10:15:34.553Z,7.10
2019-03-26T10:18:04.185Z,7.10
2019-03-26T10:20:33.793Z,7.10
2019-03-26T10:23:03.657Z,7.00
2019-03-26T10:25:33.318Z,7.10
2019-03-26T10:28:02.777Z,7.20
2019-03-26T10:30:34.151Z,7.10
2019-03-26T10:33:04.861Z,7.10
2019-03-26T10:35:34.502Z,7.20
2019-03-26T10:38:04.713Z,7.00
2019-03-26T10:40:35.504Z,6.80
2019-03-26T10:43:05.322Z,6.60
2019-03-26T10:45:35.377Z,6.70
2019-03-26T10:48:05.094Z,6.80
2019-03-26T10:50:34.489Z,7.10
2019-03-26T10:53:04.705Z,7.10
2019-03-26T10:55:34.635Z,6.90
2019-03-26T10:58:04.221Z,6.80
2019-03-26T11:00:34.257Z,6.80
2019-03-26T11:03:03.753Z,7.00
2019-03-26T11:05:33.377Z,7.10
2019-03-26T11:08:03.538Z,7.10
2019-03-26T11:10:33.405Z,6.90
2019-03-26T11:13:03.002Z,6.80
2019-03-26T11:15:32.609Z,6.90
2019-03-26T11:18:02.241Z,7.30
2019-03-26T11:20:32.358Z,7.40
2019-03-26T11:23:02.206Z,7.80
2019-03-26T11:25:32.383Z,8.30
2019-03-26T11:28:01.690Z,8.00
2019-03-26T11:30:31.603Z,8.20
2019-03-26T11:33:01.301Z,8.30
2019-03-26T11:35:31.329Z,8.50
2019-03-26T11:38:00.703Z,8.70
2019-03-26T11:40:30.443Z,8.70
2019-03-26T11:43:00.011Z,8.70
2019-03-26T11:45:29.866Z,9.30
2019-03-26T11:47:59.604Z,9.10
2019-03-26T11:50:29.462Z,8.70
2019-03-26T11:52:59.122Z,8.80
2019-03-26T11:55:28.529Z,9.00
2019-03-26T11:57:57.824Z,9.10
2019-03-26T12:00:33.321Z,9.20
2019-03-26T12:03:03.270Z,9.30
2019-03-26T12:05:32.665Z,9.50
2019-03-26T12:08:02.786Z,9.60
2019-03-26T12:10:32.411Z,9.70
2019-03-26T12:13:02.183Z,8.70
2019-03-26T12:15:31.801Z,7.80
2019-03-26T12:18:01.353Z,8.70
2019-03-26T12:20:30.657Z,8.20
2019-03-26T12:23:00.526Z,8.90
2019-03-26T12:25:30.056Z,8.90
2019-03-26T12:27:59.609Z,8.90
2019-03-26T12:30:34.072Z,9.20
2019-03-26T12:33:03.719Z,8.50
2019-03-26T12:35:33.186Z,8.40
2019-03-26T12:38:09.161Z,8.20
2019-03-26T12:40:39.021Z,7.70
2019-03-26T12:43:09.095Z,7.70
2019-03-26T12:45:38.778Z,7.80
2019-03-26T12:48:08.415Z,7.80
2019-03-26T12:50:38.727Z,7.90
2019-03-26T12:53:08.036Z,8.10
2019-03-26T12:55:38.034Z,8.20
2019-03-26T12:58:07.425Z,8.50
2019-03-26T13:00:36.818Z,8.90
2019-03-26T13:03:06.216Z,9.30
2019-03-26T13:05:36.190Z,9.70
2019-03-26T13:08:06.178Z,10.00
2019-03-26T13:10:35.769Z,10.00
2019-03-26T13:13:05.154Z,9.90
2019-03-26T13:15:34.872Z,9.80
2019-03-26T13:18:04.361Z,9.50
2019-03-26T13:20:33.933Z,9.30
2019-03-26T13:23:03.561Z,9.40
2019-03-26T13:25:32.869Z,9.50
2019-03-26T13:28:02.561Z,9.60
2019-03-26T13:30:32.549Z,9.50
2019-03-26T13:33:02.782Z,9.70
2019-03-26T13:35:32.358Z,9.70
2019-03-26T13:38:02.088Z,9.60
2019-03-26T13:40:31.634Z,9.80
2019-03-26T13:43:01.620Z,9.60
2019-03-26T13:45:32.821Z,9.30
2019-03-26T13:48:02.061Z,9.50
2019-03-26T13:50:31.865Z,9.70
2019-03-26T13:53:01.173Z,10.00
2019-03-26T13:55:30.777Z,9.90
2019-03-26T13:58:00.193Z,9.90
2019-03-26T14:00:37.781Z,10.00
2019-03-26T14:03:07.433Z,10.30
2019-03-26T14:05:36.918Z,10.40
2019-03-26T14:08:06.583Z,10.40
2019-03-26T14:10:41.113Z,10.30
2019-03-26T14:13:07.967Z,10.00
2019-03-26T14:15:37.382Z,10.10
2019-03-26T14:18:07.010Z,10.10
2019-03-26T14:20:36.691Z,10.00
2019-03-26T14:23:06.167Z,10.10
2019-03-26T14:25:36.135Z,10.20
2019-03-26T14:28:05.688Z,10.30
2019-03-26T14:30:43.058Z,10.20
2019-03-26T14:33:13.128Z,10.00
2019-03-26T14:35:42.519Z,10.30
2019-03-26T14:38:11.919Z,10.30
2019-03-26T14:40:54.079Z,10.10
2019-03-26T14:43:12.933Z,9.60
2019-03-26T14:45:42.626Z,9.50
2019-03-26T14:48:12.323Z,9.80
2019-03-26T14:50:42.682Z,9.70
2019-03-26T14:53:12.487Z,9.70
2019-03-26T14:55:42.718Z,9.60
2019-03-26T14:58:12.282Z,9.50
2019-03-26T15:00:42.001Z,9.30
2019-03-26T15:03:11.410Z,8.80
2019-03-26T15:05:41.184Z,8.70
2019-03-26T15:08:10.923Z,8.70
2019-03-26T15:10:40.242Z,8.80
2019-03-26T15:13:09.625Z,8.70
2019-03-26T15:15:39.158Z,8.50
2019-03-26T15:18:08.746Z,8.50
2019-03-26T15:20:38.366Z,8.50
2019-03-26T15:23:07.767Z,8.40
2019-03-26T15:25:37.089Z,8.30
2019-03-26T15:28:06.789Z,8.20
2019-03-26T15:30:36.896Z,8.20
2019-03-26T15:33:06.824Z,8.10
2019-03-26T15:35:36.806Z,8.20
2019-03-26T15:38:06.514Z,8.20
2019-03-26T15:40:36.326Z,8.10
2019-03-26T15:43:06.165Z,8.20
2019-03-26T15:45:35.985Z,8.40
2019-03-26T15:48:05.950Z,8.50
2019-03-26T15:50:40.193Z,8.30
2019-03-26T15:53:10.412Z,8.10
2019-03-26T15:55:40.372Z,8.30
2019-03-26T15:58:10.238Z,8.20
2019-03-26T16:00:40.441Z,8.30
2019-03-26T16:03:10.102Z,8.30
2019-03-26T16:05:39.696Z,8.30
2019-03-26T16:08:09.220Z,8.20
2019-03-26T16:10:39.414Z,8.00
2019-03-26T16:13:09.246Z,8.10
2019-03-26T16:15:44.710Z,8.10
2019-03-26T16:18:10.693Z,7.90
2019-03-26T16:20:40.241Z,7.90
2019-03-26T16:23:09.564Z,7.80
2019-03-26T16:25:39.226Z,7.80
2019-03-26T16:28:08.819Z,7.80
2019-03-26T16:30:38.466Z,7.70
2019-03-26T16:33:08.074Z,7.60
2019-03-26T16:35:40.268Z,7.60
2019-03-26T16:38:08.716Z,7.60
2019-03-26T16:40:38.605Z,7.50
2019-03-26T16:43:08.309Z,7.60
2019-03-26T16:45:37.966Z,7.50
2019-03-26T16:48:07.409Z,7.50
2019-03-26T16:53:46.684Z,7.50
2019-03-26T16:56:16.329Z,7.50
2019-03-26T16:58:45.847Z,7.60
2019-03-26T17:01:15.994Z,7.50
2019-03-26T17:03:46.449Z,7.30
2019-03-26T17:06:16.114Z,7.20
2019-03-26T17:08:46.660Z,7.20
2019-03-26T17:11:16.114Z,7.10
2019-03-26T17:13:46.708Z,7.00
2019-03-26T17:16:16.612Z,6.90
2019-03-26T17:18:47.029Z,6.80
2019-03-26T17:21:18.410Z,6.80
2019-03-26T17:23:48.334Z,6.70
2019-03-26T17:26:18.266Z,6.60
2019-03-26T17:28:47.940Z,6.60
2019-03-26T17:31:18.382Z,6.50
2019-03-26T17:33:48.380Z,6.50
2019-03-26T17:36:18.697Z,6.40
2019-03-26T17:38:49.327Z,6.40
2019-03-26T17:41:19.191Z,6.30
2019-03-26T17:43:48.895Z,6.20
2019-03-26T17:46:18.534Z,6.20
2019-03-26T17:48:48.298Z,6.10
2019-03-26T17:51:18.300Z,6.00
2019-03-26T17:53:48.520Z,5.90
2019-03-26T17:56:18.849Z,5.80
2019-03-26T17:58:48.650Z,5.80
2019-03-26T18:01:18.989Z,5.70
2019-03-26T18:03:49.478Z,5.60
2019-03-26T18:06:19.383Z,5.50
2019-03-26T18:08:49.128Z,5.50
2019-03-26T18:11:18.759Z,5.40
2019-03-26T18:13:48.676Z,5.30
2019-03-26T18:16:18.554Z,5.20
2019-03-26T18:18:48.848Z,5.00
2019-03-26T18:21:18.914Z,5.00
2019-03-26T18:23:48.940Z,4.90
2019-03-26T18:26:18.743Z,4.80
2019-03-26T18:28:48.271Z,4.80
2019-03-26T18:31:17.961Z,4.80
2019-03-26T18:33:47.988Z,4.80
2019-03-26T18:36:19.081Z,4.80
2019-03-26T18:38:48.662Z,4.80
2019-03-26T18:41:18.448Z,4.80
2019-03-26T18:43:48.881Z,4.80
2019-03-26T18:46:18.583Z,4.80
2019-03-26T18:48:48.629Z,4.80
2019-03-26T18:51:19.139Z,4.90
2019-03-26T18:53:49.360Z,4.90
2019-03-26T18:56:19.476Z,4.90
2019-03-26T18:58:49.355Z,4.90
2019-03-26T19:01:19.710Z,4.90
2019-03-26T19:03:49.761Z,4.90
2019-03-26T19:06:19.950Z,4.90
2019-03-26T19:08:49.774Z,4.90
2019-03-26T19:11:20.102Z,4.80
2019-03-26T19:13:49.721Z,4.80
2019-03-26T19:16:19.108Z,4.70
2019-03-26T19:18:48.812Z,4.60
2019-03-26T19:21:18.447Z,4.60
2019-03-26T19:23:48.461Z,4.60
2019-03-26T19:26:18.214Z,4.50
2019-03-26T19:28:48.194Z,4.50
2019-03-26T19:31:18.044Z,4.50
2019-03-26T19:33:48.088Z,4.50
2019-03-26T19:36:17.655Z,4.40
2019-03-26T19:38:47.746Z,4.40
2019-03-26T19:41:17.739Z,4.40
2019-03-26T19:43:47.930Z,4.40
2019-03-26T19:46:17.615Z,4.30
2019-03-26T19:48:48.006Z,4.30
2019-03-26T19:51:17.770Z,4.30
2019-03-26T19:53:48.791Z,4.30
2019-03-26T19:56:18.288Z,4.30
2019-03-26T19:58:48.007Z,4.30
2019-03-26T20:01:18.170Z,4.30
2019-03-26T20:03:48.423Z,4.30
2019-03-26T20:06:18.130Z,4.20
2019-03-26T20:08:48.531Z,4.10
2019-03-26T20:11:18.714Z,4.20
2019-03-26T20:13:48.103Z,4.20
2019-03-26T20:16:18.116Z,4.10
2019-03-26T20:18:48.003Z,4.00
2019-03-26T20:21:17.770Z,4.00
2019-03-26T20:23:47.247Z,4.00
2019-03-26T20:26:16.847Z,3.90
2019-03-26T20:28:46.740Z,3.90
2019-03-26T20:31:16.686Z,3.80
2019-03-26T20:33:46.556Z,3.90
2019-03-26T20:36:16.064Z,3.90
2019-03-26T20:38:46.043Z,3.90
2019-03-26T20:41:15.590Z,3.90
2019-03-26T20:43:46.119Z,3.90
2019-03-26T20:46:15.934Z,3.90
2019-03-26T20:48:45.896Z,3.90
2019-03-26T20:51:16.286Z,3.90
2019-03-26T20:53:46.451Z,3.70
2019-03-26T20:56:16.035Z,3.70
2019-03-26T20:58:45.899Z,3.60
2019-03-26T21:01:15.434Z,3.60
2019-03-26T21:03:45.254Z,3.60
2019-03-26T21:06:14.800Z,3.60
2019-03-26T21:08:44.822Z,3.50
2019-03-26T21:11:15.098Z,3.40
2019-03-26T21:13:50.689Z,3.40
2019-03-26T21:16:16.319Z,3.30
2019-03-26T21:18:46.391Z,3.30
2019-03-26T21:21:15.914Z,3.30
2019-03-26T21:23:45.386Z,3.20
2019-03-26T21:26:14.936Z,3.00
2019-03-26T21:28:45.159Z,2.90
2019-03-26T21:31:15.083Z,2.90
2019-03-26T21:33:45.283Z,2.80
2019-03-26T21:36:15.091Z,2.80
2019-03-26T21:38:45.239Z,2.70
2019-03-26T21:41:15.063Z,2.60
2019-03-26T21:43:45.227Z,2.60
2019-03-26T21:46:14.943Z,2.50
2019-03-26T21:48:45.191Z,2.60
2019-03-26T21:51:15.172Z,2.60
2019-03-26T21:53:44.882Z,2.60
2019-03-26T21:56:14.583Z,2.60
2019-03-26T21:58:43.988Z,2.60
2019-03-26T22:01:13.779Z,2.50
2019-03-26T22:03:43.655Z,2.40
2019-03-26T22:06:13.726Z,2.40
2019-03-26T22:08:43.125Z,2.40
2019-03-26T22:11:13.023Z,2.40
2019-03-26T22:13:43.267Z,2.40
2019-03-26T22:16:13.402Z,2.40
2019-03-26T22:18:43.142Z,2.40
2019-03-26T22:21:13.265Z,2.40
2019-03-26T22:23:43.185Z,2.50
2019-03-26T22:26:12.563Z,2.40
2019-03-26T22:28:41.961Z,2.40
2019-03-26T22:31:11.967Z,2.40
2019-03-26T22:33:41.983Z,2.40
2019-03-26T22:36:11.994Z,2.40
2019-03-26T22:38:41.392Z,2.40
2019-03-26T22:41:11.417Z,2.40
2019-03-26T22:43:41.378Z,2.50
2019-03-26T22:46:11.250Z,2.50
2019-03-26T22:48:41.072Z,2.60
2019-03-26T22:51:10.767Z,2.60
2019-03-26T22:53:40.736Z,2.70
2019-03-26T22:56:10.408Z,2.70
2019-03-26T22:58:40.425Z,2.80
2019-03-26T23:01:10.035Z,2.80
2019-03-26T23:03:40.091Z,2.80
2019-03-26T23:06:09.539Z,2.80
2019-03-26T23:08:39.123Z,2.90
2019-03-26T23:11:08.715Z,2.80
2019-03-26T23:13:38.228Z,2.80
2019-03-26T23:16:07.838Z,2.80
2019-03-26T23:18:37.635Z,2.80
2019-03-26T23:21:07.671Z,2.80
2019-03-26T23:23:37.390Z,2.80
2019-03-26T23:26:06.831Z,2.80
2019-03-26T23:28:36.643Z,2.80
2019-03-26T23:31:06.364Z,2.80
2019-03-26T23:33:36.051Z,2.70
2019-03-26T23:36:05.870Z,2.80
2019-03-26T23:38:36.370Z,2.80
2019-03-26T23:41:06.518Z,2.80
2019-03-26T23:43:36.647Z,2.70
2019-03-26T23:46:06.318Z,2.70
2019-03-26T23:48:35.969Z,2.70
2019-03-26T23:51:06.170Z,2.80
2019-03-26T23:53:35.819Z,2.70
2019-03-26T23:56:05.823Z,2.70
2019-03-26T23:58:35.351Z,2.70
